createdAt,value
2019-03-04T00:02:28.280Z,22.93
2019-03-04T00:04:59.009Z,22.77
2019-03-04T00:07:29.642Z,18.60
2019-03-04T00:10:00.337Z,18.90
2019-03-04T00:12:30.907Z,15.87
2019-03-04T00:15:02.498Z,17.17
2019-03-04T00:17:33.118Z,15.90
2019-03-04T00:20:04.939Z,16.57
2019-03-04T00:22:35.458Z,16.47
2019-03-04T00:25:07.054Z,15.90
2019-03-04T00:27:37.561Z,17.33
2019-03-04T00:30:11.522Z,16.17
2019-03-04T00:32:47.782Z,17.30
2019-03-04T00:35:18.317Z,16.37
2019-03-04T00:37:49.867Z,16.63
2019-03-04T00:40:20.472Z,17.80
2019-03-04T00:42:51.141Z,19.03
2019-03-04T00:45:21.681Z,18.20
2019-03-04T00:47:52.458Z,19.70
2019-03-04T00:50:23.097Z,19.00
2019-03-04T00:52:53.727Z,19.50
2019-03-04T00:55:24.257Z,18.73
2019-03-04T00:57:54.905Z,18.93
2019-03-04T01:00:27.898Z,17.90
2019-03-04T01:02:58.494Z,17.43
2019-03-04T01:05:29.119Z,16.90
2019-03-04T01:07:59.686Z,16.20
2019-03-04T01:10:30.201Z,17.27
2019-03-04T01:16:01.246Z,16.63
2019-03-04T01:18:31.919Z,15.20
2019-03-04T01:21:02.386Z,14.80
2019-03-04T01:23:34.528Z,18.10
2019-03-04T01:26:05.286Z,16.67
2019-03-04T01:28:35.664Z,15.83
2019-03-04T01:31:06.370Z,16.93
2019-03-04T01:33:36.852Z,15.10
2019-03-04T01:36:07.586Z,17.23
2019-03-04T01:38:38.105Z,15.53
2019-03-04T01:41:09.274Z,16.30
2019-03-04T01:43:39.794Z,16.20
2019-03-04T01:46:10.375Z,16.57
2019-03-04T01:48:40.784Z,16.73
2019-03-04T01:51:11.349Z,16.93
2019-03-04T01:53:42.809Z,15.90
2019-03-04T01:56:13.387Z,15.27
2019-03-04T01:58:43.793Z,16.50
2019-03-04T02:01:15.236Z,15.90
2019-03-04T02:03:46.715Z,15.37
2019-03-04T02:06:17.407Z,15.73
2019-03-04T02:08:48.152Z,13.57
2019-03-04T02:11:18.655Z,15.87
2019-03-04T02:13:51.308Z,14.20
2019-03-04T02:16:35.143Z,14.93
2019-03-04T02:19:05.774Z,12.93
2019-03-04T02:21:36.170Z,13.97
2019-03-04T02:24:25.223Z,12.43
2019-03-04T02:26:56.244Z,14.40
2019-03-04T02:29:28.312Z,13.80
2019-03-04T02:32:00.783Z,14.57
2019-03-04T02:34:31.231Z,14.00
2019-03-04T02:37:01.859Z,14.00
2019-03-04T02:39:32.910Z,13.37
2019-03-04T02:42:03.499Z,13.90
2019-03-04T02:44:34.109Z,13.87
2019-03-04T02:47:04.753Z,13.50
2019-03-04T02:49:35.349Z,14.23
2019-03-04T02:52:06.119Z,13.17
2019-03-04T02:54:36.657Z,16.20
2019-03-04T02:57:07.210Z,16.33
2019-03-04T02:59:37.637Z,13.67
2019-03-04T03:02:09.426Z,14.97
2019-03-04T03:04:39.956Z,14.63
2019-03-04T03:07:10.553Z,13.97
2019-03-04T03:09:42.003Z,14.47
2019-03-04T03:12:12.489Z,12.03
2019-03-04T03:14:42.870Z,14.17
2019-03-04T03:17:13.347Z,14.10
2019-03-04T03:19:43.862Z,14.67
2019-03-04T03:22:14.605Z,13.23
2019-03-04T03:24:44.985Z,13.17
2019-03-04T03:27:15.426Z,14.67
2019-03-04T03:29:45.926Z,14.27
2019-03-04T03:32:16.377Z,14.90
2019-03-04T03:34:46.914Z,14.13
2019-03-04T03:37:17.530Z,14.20
2019-03-04T03:39:48.127Z,12.07
2019-03-04T03:42:19.280Z,14.77
2019-03-04T03:44:49.806Z,14.43
2019-03-04T03:47:20.276Z,17.03
2019-03-04T03:50:09.615Z,16.10
2019-03-04T03:52:40.118Z,15.40
2019-03-04T03:55:13.390Z,14.77
2019-03-04T03:57:43.975Z,14.97
2019-03-04T04:00:22.729Z,14.03
2019-03-04T04:02:54.114Z,14.07
2019-03-04T04:05:24.590Z,15.63
2019-03-04T04:07:55.038Z,16.93
2019-03-04T04:10:26.369Z,17.73
2019-03-04T04:12:56.894Z,17.33
2019-03-04T04:15:28.632Z,16.73
2019-03-04T04:17:59.038Z,18.57
2019-03-04T04:20:29.558Z,15.80
2019-03-04T04:23:00.240Z,17.37
2019-03-04T04:25:31.732Z,16.53
2019-03-04T04:28:03.901Z,17.10
2019-03-04T04:30:37.113Z,16.67
2019-03-04T04:33:07.635Z,17.00
2019-03-04T04:35:38.351Z,16.40
2019-03-04T04:38:08.934Z,16.17
2019-03-04T04:40:39.413Z,16.30
2019-03-04T04:43:10.751Z,17.70
2019-03-04T04:45:42.033Z,18.57
2019-03-04T04:48:12.427Z,17.33
2019-03-04T04:50:42.888Z,16.23
2019-03-04T04:53:13.513Z,16.60
2019-03-04T04:55:44.081Z,16.03
2019-03-04T04:58:14.602Z,16.43
2019-03-04T05:00:45.000Z,17.63
2019-03-04T05:03:16.532Z,15.00
2019-03-04T05:05:47.271Z,14.50
2019-03-04T05:08:17.839Z,15.03
2019-03-04T05:10:48.372Z,14.80
2019-03-04T05:13:18.831Z,16.67
2019-03-04T05:15:49.289Z,16.20
2019-03-04T05:28:18.931Z,19.10
2019-03-04T05:30:49.391Z,17.13
2019-03-04T05:33:20.327Z,17.27
2019-03-04T05:35:50.737Z,16.53
2019-03-04T05:38:21.230Z,29.33
2019-03-04T05:50:49.422Z,19.67
2019-03-04T05:53:19.799Z,17.77
2019-03-04T05:55:50.379Z,20.90
2019-03-04T05:58:20.935Z,23.57
2019-03-04T06:01:14.556Z,23.50
2019-03-04T06:03:49.123Z,17.53
2019-03-04T06:06:40.346Z,12.43
2019-03-04T06:09:12.610Z,12.83
2019-03-04T06:14:11.415Z,12.60
2019-03-04T06:16:47.339Z,12.90
2019-03-04T06:19:14.070Z,12.73
2019-03-04T06:21:44.780Z,12.70
2019-03-04T06:24:15.280Z,12.20
2019-03-04T06:26:44.965Z,13.30
2019-03-04T06:29:15.496Z,15.43
2019-03-04T06:31:46.032Z,17.00
2019-03-04T06:34:16.633Z,17.87
2019-03-04T06:36:47.955Z,16.80
2019-03-04T06:39:18.351Z,14.83
2019-03-04T06:41:48.881Z,15.00
2019-03-04T06:44:19.738Z,14.33
2019-03-04T06:46:50.262Z,14.03
2019-03-04T06:49:20.888Z,13.87
2019-03-04T06:51:51.504Z,13.90
2019-03-04T06:54:26.523Z,13.07
2019-03-04T06:57:11.037Z,13.30
2019-03-04T06:59:51.815Z,12.97
2019-03-04T07:02:42.233Z,13.13
2019-03-04T07:05:43.896Z,12.53
2019-03-04T07:08:39.360Z,13.80
2019-03-04T07:11:09.930Z,14.77
2019-03-04T07:13:40.467Z,13.27
2019-03-04T07:16:10.967Z,13.43
2019-03-04T07:18:41.413Z,13.37
2019-03-04T07:21:13.079Z,11.97
2019-03-04T07:23:43.730Z,11.77
2019-03-04T07:26:16.262Z,12.80
2019-03-04T07:28:46.850Z,12.60
2019-03-04T07:31:17.423Z,13.83
2019-03-04T07:33:47.934Z,13.37
2019-03-04T07:36:18.326Z,11.97
2019-03-04T07:38:57.609Z,12.80
2019-03-04T07:41:29.274Z,12.67
2019-03-04T07:43:59.695Z,12.73
2019-03-04T07:46:30.332Z,12.07
2019-03-04T07:49:00.802Z,13.60
2019-03-04T07:51:31.339Z,12.10
2019-03-04T07:54:01.845Z,13.13
2019-03-04T07:56:32.358Z,13.23
2019-03-04T07:59:02.997Z,13.47
2019-03-04T08:01:33.694Z,12.33
2019-03-04T08:04:04.489Z,14.43
2019-03-04T08:06:35.963Z,13.80
2019-03-04T08:09:34.999Z,12.70
2019-03-04T08:12:34.116Z,12.60
2019-03-04T08:15:07.577Z,12.93
2019-03-04T08:17:38.163Z,12.33
2019-03-04T08:20:09.684Z,12.23
2019-03-04T08:22:40.581Z,12.10
2019-03-04T08:25:11.974Z,11.20
2019-03-04T08:27:42.855Z,12.30
2019-03-04T08:30:17.693Z,11.40
2019-03-04T08:32:48.292Z,10.63
2019-03-04T08:35:18.900Z,11.40
2019-03-04T08:37:49.485Z,11.10
2019-03-04T08:40:20.135Z,12.27
2019-03-04T08:42:50.563Z,11.60
2019-03-04T08:45:21.509Z,13.30
2019-03-04T08:47:54.793Z,13.03
2019-03-04T08:50:26.217Z,12.30
2019-03-04T08:52:56.824Z,13.83
2019-03-04T08:55:27.356Z,11.97
2019-03-04T08:57:57.862Z,12.43
2019-03-04T09:00:31.832Z,11.50
2019-03-04T09:03:02.482Z,11.77
2019-03-04T09:05:34.413Z,11.20
2019-03-04T09:08:06.940Z,11.87
2019-03-04T09:10:38.818Z,11.03
2019-03-04T09:13:09.491Z,10.53
2019-03-04T09:15:40.110Z,11.03
2019-03-04T09:18:10.701Z,10.23
2019-03-04T09:20:42.128Z,9.83
2019-03-04T09:23:12.715Z,9.83
2019-03-04T09:26:05.357Z,10.90
2019-03-04T09:28:35.947Z,10.40
2019-03-04T09:31:06.490Z,12.97
2019-03-04T09:33:37.114Z,15.07
2019-03-04T09:36:07.943Z,14.20
2019-03-04T09:38:38.456Z,12.93
2019-03-04T09:41:08.993Z,9.90
2019-03-04T09:43:39.553Z,9.70
2019-03-04T09:46:10.186Z,9.60
2019-03-04T09:48:40.785Z,9.13
2019-03-04T09:51:12.460Z,8.43
2019-03-04T09:53:43.220Z,8.80
2019-03-04T09:56:13.911Z,8.47
2019-03-04T09:58:44.573Z,7.37
2019-03-04T10:01:34.448Z,7.63
2019-03-04T10:04:15.406Z,8.13
2019-03-04T10:06:53.378Z,7.93
2019-03-04T10:09:52.670Z,6.97
2019-03-04T10:12:54.540Z,7.17
2019-03-04T10:15:55.487Z,6.67
2019-03-04T10:18:35.855Z,7.03
2019-03-04T10:21:22.937Z,7.03
2019-03-04T10:24:29.111Z,6.00
2019-03-04T10:27:21.431Z,6.23
2019-03-04T10:30:08.313Z,6.30
2019-03-04T10:33:31.796Z,7.10
2019-03-04T10:36:21.371Z,6.70
2019-03-04T10:39:15.132Z,6.60
2019-03-04T10:42:20.330Z,6.93
2019-03-04T10:45:25.539Z,6.73
2019-03-04T10:47:56.062Z,6.63
2019-03-04T10:50:26.707Z,6.60
2019-03-04T10:52:57.390Z,6.20
2019-03-04T10:55:27.997Z,6.80
2019-03-04T10:57:58.548Z,6.13
2019-03-04T11:00:29.192Z,7.17
2019-03-04T11:02:59.811Z,6.50
2019-03-04T11:05:29.277Z,7.70
2019-03-04T11:08:00.695Z,7.40
2019-03-04T11:10:32.207Z,7.70
2019-03-04T11:13:02.757Z,7.43
2019-03-04T11:15:34.444Z,7.77
2019-03-04T11:18:06.002Z,7.97
2019-03-04T11:20:36.703Z,8.77
2019-03-04T11:23:07.885Z,8.17
2019-03-04T11:25:38.531Z,9.63
2019-03-04T11:28:09.162Z,10.23
2019-03-04T11:30:39.882Z,10.00
2019-03-04T11:33:10.528Z,11.43
2019-03-04T11:35:41.092Z,10.27
2019-03-04T11:38:44.724Z,11.03
2019-03-04T11:41:18.932Z,11.10
2019-03-04T11:43:49.573Z,10.70
2019-03-04T11:46:21.766Z,10.07
2019-03-04T11:48:52.398Z,10.10
2019-03-04T11:51:22.861Z,9.67
2019-03-04T11:53:53.333Z,10.03
2019-03-04T11:56:23.860Z,10.60
2019-03-04T11:58:54.353Z,9.87
2019-03-04T12:01:44.712Z,10.40
2019-03-04T12:04:15.326Z,10.73
2019-03-04T12:06:45.906Z,9.83
2019-03-04T12:09:16.719Z,9.83
2019-03-04T12:11:49.437Z,10.73
2019-03-04T12:14:19.887Z,8.90
2019-03-04T12:16:50.405Z,8.50
2019-03-04T12:19:20.820Z,8.47
2019-03-04T12:21:51.368Z,9.60
2019-03-04T12:24:22.439Z,9.17
2019-03-04T12:26:53.055Z,9.00
2019-03-04T12:29:23.652Z,8.50
2019-03-04T12:31:55.908Z,8.40
2019-03-04T12:34:26.472Z,8.30
2019-03-04T12:36:57.055Z,7.40
2019-03-04T12:39:27.634Z,7.73
2019-03-04T12:41:58.112Z,8.17
2019-03-04T12:44:28.691Z,7.47
2019-03-04T12:46:59.154Z,7.13
2019-03-04T12:49:29.739Z,9.00
2019-03-04T12:52:00.214Z,8.00
2019-03-04T12:54:30.833Z,7.40
2019-03-04T12:57:02.800Z,7.37
2019-03-04T12:59:33.280Z,8.23
2019-03-04T13:02:03.801Z,7.00
2019-03-04T13:04:34.296Z,7.37
2019-03-04T13:07:04.925Z,6.87
2019-03-04T13:09:35.356Z,6.70
2019-03-04T13:12:07.061Z,7.20
2019-03-04T13:14:38.472Z,6.33
2019-03-04T13:17:09.189Z,7.23
2019-03-04T13:19:39.861Z,6.47
2019-03-04T13:22:10.506Z,6.40
2019-03-04T13:24:40.879Z,6.70
2019-03-04T13:27:11.559Z,7.10
2019-03-04T13:29:42.077Z,7.07
2019-03-04T13:32:12.684Z,6.43
2019-03-04T13:34:43.264Z,6.40
2019-03-04T13:37:14.555Z,5.47
2019-03-04T13:39:45.086Z,6.20
2019-03-04T13:42:15.724Z,5.63
2019-03-04T13:44:46.203Z,5.70
2019-03-04T13:47:16.694Z,5.97
2019-03-04T13:49:47.224Z,6.30
2019-03-04T13:52:17.882Z,5.43
2019-03-04T13:54:48.297Z,4.97
2019-03-04T13:57:20.005Z,5.37
2019-03-04T13:59:50.447Z,5.07
2019-03-04T14:02:21.058Z,5.73
2019-03-04T14:04:52.125Z,5.30
2019-03-04T14:07:26.685Z,4.80
2019-03-04T14:09:59.261Z,5.23
2019-03-04T14:12:30.691Z,5.40
2019-03-04T14:15:01.194Z,4.90
2019-03-04T14:17:31.778Z,5.10
2019-03-04T14:20:02.233Z,5.40
2019-03-04T14:22:40.097Z,4.53
2019-03-04T14:25:08.995Z,4.93
2019-03-04T14:27:50.949Z,4.40
2019-03-04T14:30:23.457Z,4.60
2019-03-04T14:32:53.930Z,4.63
2019-03-04T14:35:24.538Z,4.50
2019-03-04T14:37:55.830Z,5.00
2019-03-04T14:40:26.449Z,5.30
2019-03-04T14:42:57.278Z,4.60
2019-03-04T14:45:28.870Z,4.67
2019-03-04T14:47:59.500Z,4.00
2019-03-04T14:50:30.081Z,4.70
2019-03-04T14:53:00.575Z,5.30
2019-03-04T14:55:37.159Z,4.73
2019-03-04T14:58:07.861Z,4.00
2019-03-04T15:00:43.049Z,4.30
2019-03-04T15:03:22.083Z,4.83
2019-03-04T15:05:46.903Z,5.03
2019-03-04T15:08:17.391Z,4.47
2019-03-04T15:10:47.894Z,6.20
2019-03-04T15:13:20.752Z,6.57
2019-03-04T15:16:00.770Z,6.00
2019-03-04T15:18:23.606Z,5.73
2019-03-04T15:20:54.045Z,9.30
2019-03-04T15:23:35.190Z,9.73
2019-03-04T15:26:05.982Z,10.77
2019-03-04T15:28:36.455Z,10.23
2019-03-04T15:33:47.081Z,10.90
2019-03-04T15:36:17.692Z,11.17
2019-03-04T15:38:48.174Z,11.90
2019-03-04T15:41:18.633Z,11.63
2019-03-04T15:43:49.260Z,11.30
2019-03-04T15:46:20.259Z,11.57
2019-03-04T15:48:50.867Z,12.73
2019-03-04T15:51:21.478Z,13.50
2019-03-04T15:53:52.641Z,13.07
2019-03-04T15:56:23.241Z,13.00
2019-03-04T15:58:53.752Z,12.73
2019-03-04T16:01:25.164Z,13.13
2019-03-04T16:03:55.708Z,13.53
2019-03-04T16:06:26.292Z,13.13
2019-03-04T16:08:56.798Z,13.50
2019-03-04T16:11:27.512Z,14.20
2019-03-04T16:13:58.852Z,14.33
2019-03-04T16:16:29.510Z,13.53
2019-03-04T16:19:00.097Z,15.20
2019-03-04T16:21:31.589Z,15.00
2019-03-04T16:24:02.167Z,15.13
2019-03-04T16:26:33.314Z,15.50
2019-03-04T16:29:03.919Z,16.17
2019-03-04T16:31:34.459Z,14.37
2019-03-04T16:34:05.093Z,14.10
2019-03-04T16:36:36.582Z,14.23
2019-03-04T16:39:08.934Z,14.37
2019-03-04T16:41:39.648Z,13.70
2019-03-04T16:44:10.139Z,13.70
2019-03-04T16:46:40.689Z,13.10
2019-03-04T16:49:11.225Z,13.80
2019-03-04T16:51:42.255Z,13.40
2019-03-04T16:54:12.810Z,13.07
2019-03-04T16:56:43.326Z,12.53
2019-03-04T16:59:14.088Z,14.53
2019-03-04T17:01:44.796Z,14.07
2019-03-04T17:04:15.389Z,14.93
2019-03-04T17:06:46.034Z,14.23
2019-03-04T17:09:18.605Z,15.20
2019-03-04T17:11:49.268Z,15.27
2019-03-04T17:14:20.758Z,14.60
2019-03-04T17:16:51.307Z,14.03
2019-03-04T17:19:22.133Z,14.77
2019-03-04T17:21:53.402Z,13.80
2019-03-04T17:24:24.033Z,16.37
2019-03-04T17:26:54.617Z,15.13
2019-03-04T17:29:25.232Z,15.97
2019-03-04T17:31:55.828Z,15.33
2019-03-04T17:34:26.434Z,15.57
2019-03-04T17:36:57.361Z,15.80
2019-03-04T17:39:27.950Z,14.10
2019-03-04T17:41:59.514Z,15.47
2019-03-04T17:44:30.144Z,14.43
2019-03-04T17:47:02.272Z,15.17
2019-03-04T17:49:32.909Z,14.17
2019-03-04T17:52:07.068Z,13.27
2019-03-04T17:54:37.694Z,12.00
2019-03-04T17:57:09.680Z,10.87
2019-03-04T17:59:42.100Z,12.33
2019-03-04T18:02:13.775Z,11.97
2019-03-04T18:04:51.476Z,12.03
2019-03-04T18:07:22.018Z,11.23
2019-03-04T18:09:54.824Z,11.70
2019-03-04T18:12:26.636Z,10.97
2019-03-04T18:14:57.966Z,11.23
2019-03-04T18:17:28.515Z,10.90
2019-03-04T18:19:59.127Z,9.77
2019-03-04T18:22:30.019Z,10.67
2019-03-04T18:25:00.668Z,10.13
2019-03-04T18:27:39.861Z,10.23
2019-03-04T18:30:38.567Z,9.50
2019-03-04T18:33:28.818Z,8.67
2019-03-04T18:36:21.978Z,9.13
2019-03-04T18:39:39.444Z,9.33
2019-03-04T18:42:51.139Z,8.77
2019-03-04T18:46:10.663Z,11.00
2019-03-04T18:48:58.667Z,8.43
2019-03-04T18:51:32.629Z,8.03
2019-03-04T18:54:08.962Z,7.87
2019-03-04T18:56:40.994Z,8.10
2019-03-04T18:59:11.647Z,9.07
2019-03-04T19:01:42.669Z,8.50
2019-03-04T19:04:13.294Z,7.97
2019-03-04T19:06:45.314Z,7.70
2019-03-04T19:09:21.359Z,7.53
2019-03-04T19:11:52.841Z,8.63
2019-03-04T19:14:23.538Z,9.13
2019-03-04T19:16:55.086Z,7.17
2019-03-04T19:19:26.173Z,6.70
2019-03-04T19:22:03.628Z,5.83
2019-03-04T19:24:34.827Z,5.30
2019-03-04T19:27:05.669Z,4.80
2019-03-04T19:29:36.190Z,5.10
2019-03-04T19:32:06.877Z,4.73
2019-03-04T19:34:37.426Z,4.87
2019-03-04T19:37:07.996Z,3.83
2019-03-04T19:39:38.674Z,3.57
2019-03-04T19:42:09.658Z,2.70
2019-03-04T19:44:41.097Z,2.33
2019-03-04T19:47:12.787Z,2.07
2019-03-04T19:49:43.441Z,2.40
2019-03-04T19:52:14.274Z,1.67
2019-03-04T19:54:45.653Z,1.27
2019-03-04T19:57:16.633Z,1.13
2019-03-04T19:59:48.632Z,1.50
2019-03-04T20:02:19.234Z,0.80
2019-03-04T20:04:51.314Z,0.43
2019-03-04T20:07:21.960Z,0.40
2019-03-04T20:09:52.951Z,0.40
2019-03-04T20:12:23.559Z,0.50
2019-03-04T20:14:54.117Z,0.50
2019-03-04T20:17:26.682Z,0.73
2019-03-04T20:19:57.198Z,0.63
2019-03-04T20:22:28.672Z,0.50
2019-03-04T20:25:00.587Z,0.63
2019-03-04T20:27:31.348Z,0.63
2019-03-04T20:30:02.027Z,0.30
2019-03-04T20:32:32.655Z,0.40
2019-03-04T20:35:03.204Z,0.53
2019-03-04T20:37:33.825Z,0.40
2019-03-04T20:40:06.588Z,0.40
2019-03-04T20:42:37.205Z,0.33
2019-03-04T20:45:12.398Z,0.47
2019-03-04T20:47:43.275Z,0.50
2019-03-04T20:50:22.353Z,0.50
2019-03-04T20:52:55.417Z,0.50
2019-03-04T20:55:26.055Z,0.43
2019-03-04T20:57:56.876Z,0.47
2019-03-04T21:00:33.538Z,0.40
2019-03-04T21:03:06.151Z,0.40
2019-03-04T21:05:38.234Z,0.90
2019-03-04T21:08:09.655Z,0.70
2019-03-04T21:10:40.310Z,0.50
2019-03-04T21:13:35.251Z,0.87
2019-03-04T21:15:59.904Z,0.60
2019-03-04T21:18:32.292Z,0.50
2019-03-04T21:21:04.456Z,0.33
2019-03-04T21:23:35.484Z,0.43
2019-03-04T21:26:19.891Z,0.60
2019-03-04T21:29:29.848Z,0.53
2019-03-04T21:32:10.974Z,0.70
2019-03-04T21:35:12.750Z,0.67
2019-03-04T21:43:16.719Z,0.90
2019-03-04T21:46:27.915Z,0.90
2019-03-04T21:49:06.111Z,0.77
2019-03-04T21:52:00.754Z,0.93
2019-03-04T21:54:32.336Z,1.17
2019-03-04T21:57:13.529Z,1.77
2019-03-04T21:59:45.737Z,1.80
2019-03-04T22:02:43.133Z,2.23
2019-03-04T22:05:19.295Z,1.50
2019-03-04T22:07:50.339Z,1.60
2019-03-04T22:10:20.943Z,1.43
2019-03-04T22:12:51.946Z,1.67
2019-03-04T22:15:27.023Z,2.17
2019-03-04T22:17:57.741Z,2.20
2019-03-04T22:20:29.727Z,2.47
2019-03-04T22:23:01.098Z,2.50
2019-03-04T22:25:32.791Z,2.40
2019-03-04T22:28:03.629Z,1.80
2019-03-04T22:30:34.228Z,2.30
2019-03-04T22:33:05.933Z,1.37
2019-03-04T22:35:37.007Z,1.20
2019-03-04T22:38:07.863Z,1.27
2019-03-04T22:40:38.480Z,0.80
2019-03-04T22:43:09.170Z,1.60
2019-03-04T22:45:41.512Z,0.97
2019-03-04T22:48:12.791Z,1.10
2019-03-04T22:50:43.847Z,1.10
2019-03-04T22:53:21.492Z,0.83
2019-03-04T22:55:52.453Z,1.07
2019-03-04T22:58:28.718Z,1.40
2019-03-04T23:01:01.422Z,0.73
2019-03-04T23:03:38.218Z,0.93
2019-03-04T23:06:19.461Z,0.97
2019-03-04T23:08:50.160Z,0.73
2019-03-04T23:11:25.093Z,0.83
2019-03-04T23:14:04.020Z,1.30
2019-03-04T23:16:34.721Z,1.00
2019-03-04T23:19:05.760Z,0.90
2019-03-04T23:21:38.785Z,0.93
2019-03-04T23:24:09.334Z,1.10
2019-03-04T23:26:40.016Z,1.20
2019-03-04T23:29:10.983Z,0.67
2019-03-04T23:31:41.575Z,0.93
2019-03-04T23:34:13.731Z,1.07
2019-03-04T23:36:44.337Z,0.80
2019-03-04T23:39:16.752Z,1.00
2019-03-04T23:41:49.349Z,1.20
2019-03-04T23:44:24.599Z,1.10
2019-03-04T23:46:57.193Z,1.20
2019-03-04T23:49:31.293Z,1.00
2019-03-04T23:52:03.951Z,1.00
2019-03-04T23:54:34.418Z,1.23
2019-03-04T23:57:09.939Z,1.20
2019-03-04T23:59:42.083Z,1.23
